Time;durP1;ratioP1;P1;durP2;ratioP2;P2;SDS_P1;SDS_P2;PMS_P1;PMS_P2;Temp;Humidity;BMP_temperature;BMP_pressure;BME280_temperature;BME280_humidity;BME280_pressure;Samples;Min_cycle;Max_cycle;Signal;HPM_P1;HPM_P2
2021/08/15 00:00:22;;;;;;;4.00;2.85;;;;;;;;;;1082093;54;20388;-82
2021/08/15 00:01:24;;;;;;;2.78;2.05;;;;;;;;;;1081874;54;20373;-82
2021/08/15 00:02:26;;;;;;;7.90;2.57;;;;;;;;;;1081577;47;20960;-82
2021/08/15 00:03:28;;;;;;;6.88;2.60;;;;;;;;;;1081836;54;20389;-82
2021/08/15 00:04:29;;;;;;;5.35;2.20;;;;;;;;;;1081843;47;20365;-82
2021/08/15 00:05:31;;;;;;;5.50;2.15;;;;;;;;;;1081841;54;20377;-82
2021/08/15 00:06:32;;;;;;;3.53;2.40;;;;;;;;;;1081693;54;20373;-83
2021/08/15 00:07:35;;;;;;;6.25;2.42;;;;;;;;;;1081902;39;20810;-83
2021/08/15 00:08:37;;;;;;;5.40;2.35;;;;;;;;;;1081916;54;20385;-82
2021/08/15 00:09:38;;;;;;;4.03;2.70;;;;;;;;;;1081606;47;20393;-82
2021/08/15 00:10:40;;;;;;;6.72;2.78;;;;;;;;;;1082034;54;20412;-82
2021/08/15 00:11:41;;;;;;;4.35;2.17;;;;;;;;;;1081843;54;20412;-82
2021/08/15 00:12:44;;;;;;;6.53;2.67;;;;;;;;;;1083389;47;21093;-83
2021/08/15 00:13:46;;;;;;;4.53;2.28;;;;;;;;;;1083945;54;20377;-83
2021/08/15 00:14:47;;;;;;;8.50;2.53;;;;;;;;;;1084412;47;20379;-83
2021/08/15 00:15:49;;;;;;;5.03;2.25;;;;;;;;;;1082796;47;20403;-82
2021/08/15 00:16:51;;;;;;;4.15;2.35;;;;;;;;;;1082749;47;20392;-83
2021/08/15 00:17:53;;;;;;;6.88;2.92;;;;;;;;;;1082802;54;20361;-82
2021/08/15 00:18:55;;;;;;;4.47;2.75;;;;;;;;;;1085344;47;20384;-83
2021/08/15 00:19:57;;;;;;;7.38;2.70;;;;;;;;;;1084988;54;20385;-82
2021/08/15 00:20:58;;;;;;;4.95;2.60;;;;;;;;;;1084657;47;20429;-83
2021/08/15 00:22:01;;;;;;;5.80;2.72;;;;;;;;;;1084201;54;20905;-83
2021/08/15 00:23:03;;;;;;;5.25;2.50;;;;;;;;;;1082728;47;20956;-81
2021/08/15 00:24:05;;;;;;;3.92;2.50;;;;;;;;;;1082837;54;20922;-84
2021/08/15 00:25:07;;;;;;;4.93;2.60;;;;;;;;;;1082608;54;20350;-84
2021/08/15 00:26:09;;;;;;;5.82;2.78;;;;;;;;;;1082243;54;20397;-81
2021/08/15 00:27:10;;;;;;;11.73;2.95;;;;;;;;;;1081463;54;20376;-81
2021/08/15 00:28:12;;;;;;;5.85;2.75;;;;;;;;;;1081081;54;20452;-85
2021/08/15 00:29:14;;;;;;;4.63;2.50;;;;;;;;;;1081097;47;20345;-83
2021/08/15 00:30:15;;;;;;;5.20;3.00;;;;;;;;;;1080831;54;20466;-83
2021/08/15 00:31:17;;;;;;;6.00;2.67;;;;;;;;;;1081362;54;20362;-82
2021/08/15 00:32:19;;;;;;;5.03;2.78;;;;;;;;;;1081375;54;20384;-83
2021/08/15 00:33:20;;;;;;;3.70;2.33;;;;;;;;;;1081077;54;21240;-82
2021/08/15 00:34:22;;;;;;;3.58;2.67;;;;;;;;;;1080886;47;20384;-83
2021/08/15 00:35:23;;;;;;;7.78;2.70;;;;;;;;;;1081003;54;20389;-81
2021/08/15 00:36:25;;;;;;;5.70;2.83;;;;;;;;;;1081100;47;20393;-83
2021/08/15 00:37:26;;;;;;;4.25;2.65;;;;;;;;;;1081368;47;20369;-83
2021/08/15 00:38:28;;;;;;;4.43;1.92;;;;;;;;;;1080851;54;20385;-83
2021/08/15 00:39:29;;;;;;;2.95;2.38;;;;;;;;;;1081555;39;20762;-81
2021/08/15 00:40:31;;;;;;;4.85;2.53;;;;;;;;;;1081145;47;20377;-83
2021/08/15 00:41:33;;;;;;;6.97;2.40;;;;;;;;;;1081028;47;20365;-83
2021/08/15 00:42:34;;;;;;;5.38;2.63;;;;;;;;;;1081236;54;20455;-80
2021/08/15 00:43:36;;;;;;;5.07;2.15;;;;;;;;;;1080955;54;21351;-81
2021/08/15 00:44:37;;;;;;;5.85;2.50;;;;;;;;;;1081220;47;20925;-82
2021/08/15 00:45:39;;;;;;;4.70;2.53;;;;;;;;;;1080997;47;20910;-82
2021/08/15 00:46:42;;;;;;;5.75;2.28;;;;;;;;;;1080985;54;21015;-82
2021/08/15 00:47:43;;;;;;;6.00;2.65;;;;;;;;;;1081360;54;20458;-81
2021/08/15 00:48:45;;;;;;;5.53;3.15;;;;;;;;;;1081159;47;21003;-82
2021/08/15 00:49:46;;;;;;;10.90;3.25;;;;;;;;;;1081405;39;20809;-83
2021/08/15 00:50:48;;;;;;;6.00;2.42;;;;;;;;;;1081068;47;20382;-83
2021/08/15 00:51:49;;;;;;;6.82;2.53;;;;;;;;;;1081008;54;20388;-84
2021/08/15 00:52:51;;;;;;;4.25;2.10;;;;;;;;;;1081261;54;20374;-81
2021/08/15 00:53:53;;;;;;;5.75;2.40;;;;;;;;;;1080980;47;20385;-83
2021/08/15 00:54:55;;;;;;;2.78;2.15;;;;;;;;;;1080752;54;20369;-81
2021/08/15 00:56:03;;;;;;;6.60;2.38;;;;;;;;;;1081275;54;20377;-81
2021/08/15 00:57:06;;;;;;;8.88;3.10;;;;;;;;;;1081147;47;20395;-83
2021/08/15 00:58:08;;;;;;;3.85;2.03;;;;;;;;;;1080924;47;20377;-82
2021/08/15 00:59:10;;;;;;;5.53;2.60;;;;;;;;;;1080804;47;20483;-82
2021/08/15 01:00:12;;;;;;;5.35;2.65;;;;;;;;;;1081292;47;20384;-83
2021/08/15 01:01:13;;;;;;;3.53;2.37;;;;;;;;;;1080784;54;20410;-83
2021/08/15 01:02:15;;;;;;;3.83;2.30;;;;;;;;;;1080888;47;20380;-82
2021/08/15 01:03:17;;;;;;;3.75;2.45;;;;;;;;;;1080844;47;20365;-82
2021/08/15 01:04:20;;;;;;;4.30;1.98;;;;;;;;;;1081286;54;20404;-82
2021/08/15 01:05:21;;;;;;;2.88;1.90;;;;;;;;;;1080848;54;20360;-82
2021/08/15 01:06:24;;;;;;;6.68;2.58;;;;;;;;;;1080941;47;21415;-81
2021/08/15 01:07:26;;;;;;;3.80;2.47;;;;;;;;;;1080941;54;20365;-81
2021/08/15 01:08:31;;;;;;;3.80;2.00;;;;;;;;;;1081353;54;20381;-81
2021/08/15 01:09:33;;;;;;;6.05;2.25;;;;;;;;;;1081163;54;20503;-81
2021/08/15 01:10:35;;;;;;;6.55;2.63;;;;;;;;;;1081027;54;20407;-82
2021/08/15 01:11:37;;;;;;;4.05;2.13;;;;;;;;;;1080796;54;20416;-82
2021/08/15 01:12:38;;;;;;;2.90;1.90;;;;;;;;;;1081013;47;20404;-82
2021/08/15 01:13:41;;;;;;;4.70;2.30;;;;;;;;;;1080694;54;20373;-81
2021/08/15 01:14:44;;;;;;;3.10;2.17;;;;;;;;;;1081236;54;20366;-82
2021/08/15 01:15:45;;;;;;;3.15;2.30;;;;;;;;;;1081240;47;20408;-83
2021/08/15 01:16:47;;;;;;;3.90;2.20;;;;;;;;;;1080977;47;20396;-81
2021/08/15 01:17:48;;;;;;;5.35;2.17;;;;;;;;;;1081710;39;20734;-81
2021/08/15 01:18:50;;;;;;;4.78;2.33;;;;;;;;;;1081463;47;20377;-83
2021/08/15 01:19:53;;;;;;;3.40;2.10;;;;;;;;;;1080845;54;20361;-82
2021/08/15 01:20:56;;;;;;;2.95;2.22;;;;;;;;;;1081812;39;20794;-81
2021/08/15 01:21:58;;;;;;;9.32;2.22;;;;;;;;;;1081354;54;20362;-81
2021/08/15 01:23:00;;;;;;;5.07;2.28;;;;;;;;;;1081298;54;20373;-83
2021/08/15 01:24:01;;;;;;;4.68;2.38;;;;;;;;;;1081302;47;20378;-84
2021/08/15 01:25:05;;;;;;;5.43;2.17;;;;;;;;;;1081500;54;20373;-83
2021/08/15 01:26:08;;;;;;;4.53;2.03;;;;;;;;;;1081717;54;20404;-83
2021/08/15 01:27:10;;;;;;;4.55;2.30;;;;;;;;;;1081988;54;20408;-81
2021/08/15 01:28:14;;;;;;;3.97;2.10;;;;;;;;;;1081601;47;20377;-84
2021/08/15 01:29:17;;;;;;;4.40;1.98;;;;;;;;;;1082111;39;20813;-82
2021/08/15 01:30:18;;;;;;;2.90;1.80;;;;;;;;;;1083360;54;20361;-83
2021/08/15 01:31:23;;;;;;;7.30;2.67;;;;;;;;;;1086692;54;20365;-84
2021/08/15 01:32:25;;;;;;;3.58;2.28;;;;;;;;;;1086990;54;20374;-84
2021/08/15 01:33:34;;;;;;;4.85;2.20;;;;;;;;;;1086786;54;20480;-83
2021/08/15 01:34:35;;;;;;;2.80;2.17;;;;;;;;;;1086336;54;20361;-81
2021/08/15 01:35:37;;;;;;;4.40;2.38;;;;;;;;;;1086251;54;20373;-81
2021/08/15 01:36:38;;;;;;;4.28;2.28;;;;;;;;;;1087145;47;20349;-83
2021/08/15 01:37:40;;;;;;;5.68;2.00;;;;;;;;;;1087769;54;20365;-82
2021/08/15 01:38:42;;;;;;;5.70;2.15;;;;;;;;;;1087424;54;20445;-82
2021/08/15 01:39:44;;;;;;;6.63;2.15;;;;;;;;;;1087472;54;20369;-84
2021/08/15 01:40:45;;;;;;;5.63;2.30;;;;;;;;;;1086567;54;20453;-83
2021/08/15 01:41:47;;;;;;;4.13;2.20;;;;;;;;;;1086630;47;20388;-83
2021/08/15 01:42:48;;;;;;;6.32;1.95;;;;;;;;;;1086359;54;20350;-82
2021/08/15 01:43:51;;;;;;;4.40;1.67;;;;;;;;;;1085282;47;20437;-82
2021/08/15 01:44:53;;;;;;;5.28;2.40;;;;;;;;;;1082576;47;20400;-82
2021/08/15 01:45:54;;;;;;;3.47;2.08;;;;;;;;;;1082855;47;20373;-82
2021/08/15 01:46:56;;;;;;;6.43;2.70;;;;;;;;;;1081662;54;20470;-82
2021/08/15 01:47:58;;;;;;;5.28;2.60;;;;;;;;;;1081341;47;20512;-83
2021/08/15 01:49:00;;;;;;;5.43;2.25;;;;;;;;;;1081846;39;20428;-80
2021/08/15 01:50:02;;;;;;;4.38;2.28;;;;;;;;;;1081441;54;20361;-81
2021/08/15 01:51:04;;;;;;;5.93;2.05;;;;;;;;;;1081618;54;20368;-84
2021/08/15 01:52:05;;;;;;;4.70;2.40;;;;;;;;;;1081361;54;20381;-81
2021/08/15 01:53:11;;;;;;;4.82;2.22;;;;;;;;;;1081129;47;20383;-83
2021/08/15 01:54:12;;;;;;;5.83;2.20;;;;;;;;;;1081542;54;20512;-82
2021/08/15 01:55:14;;;;;;;5.82;2.53;;;;;;;;;;1081205;54;20390;-82
2021/08/15 01:56:16;;;;;;;7.05;2.30;;;;;;;;;;1081204;47;20373;-82
2021/08/15 01:57:17;;;;;;;4.57;2.70;;;;;;;;;;1080776;54;20405;-82
2021/08/15 01:58:19;;;;;;;4.90;2.30;;;;;;;;;;1081312;47;20412;-83
2021/08/15 01:59:21;;;;;;;5.97;2.50;;;;;;;;;;1081181;47;20373;-81
2021/08/15 02:00:22;;;;;;;5.30;2.50;;;;;;;;;;1081449;39;21053;-82
2021/08/15 02:01:25;;;;;;;7.18;2.97;;;;;;;;;;1080980;54;20373;-82
2021/08/15 02:02:27;;;;;;;8.18;3.05;;;;;;;;;;1081621;54;20391;-83
2021/08/15 02:03:29;;;;;;;10.23;3.47;;;;;;;;;;1081514;54;20381;-82
2021/08/15 02:04:30;;;;;;;6.93;3.25;;;;;;;;;;1081685;47;20388;-83
2021/08/15 02:05:32;;;;;;;5.88;3.17;;;;;;;;;;1081179;49;20373;-83
2021/08/15 02:06:33;;;;;;;6.05;2.65;;;;;;;;;;1081551;54;20416;-83
2021/08/15 02:07:35;;;;;;;6.50;2.75;;;;;;;;;;1081151;54;20377;-81
2021/08/15 02:08:36;;;;;;;6.60;2.78;;;;;;;;;;1080743;47;20400;-82
2021/08/15 02:09:38;;;;;;;5.88;2.58;;;;;;;;;;1081309;47;20373;-84
2021/08/15 02:10:39;;;;;;;6.38;2.90;;;;;;;;;;1081317;54;20956;-81
2021/08/15 02:11:41;;;;;;;6.75;2.83;;;;;;;;;;1080873;47;20388;-83
2021/08/15 02:12:42;;;;;;;8.02;3.13;;;;;;;;;;1081266;47;20408;-82
2021/08/15 02:13:45;;;;;;;5.55;3.47;;;;;;;;;;1081164;54;20381;-82
2021/08/15 02:14:46;;;;;;;8.27;2.90;;;;;;;;;;1081311;47;20377;-83
2021/08/15 02:15:48;;;;;;;5.60;3.20;;;;;;;;;;1081241;47;20377;-81
2021/08/15 02:16:49;;;;;;;5.55;2.53;;;;;;;;;;1081347;47;20368;-81
2021/08/15 02:17:51;;;;;;;7.45;3.28;;;;;;;;;;1081249;47;20941;-81
2021/08/15 02:18:53;;;;;;;7.30;2.80;;;;;;;;;;1081452;47;20381;-84
2021/08/15 02:19:55;;;;;;;6.50;3.00;;;;;;;;;;1081554;54;20378;-83
2021/08/15 02:20:56;;;;;;;5.93;2.75;;;;;;;;;;1081453;54;20369;-81
2021/08/15 02:21:58;;;;;;;6.60;2.90;;;;;;;;;;1083558;54;20393;-82
2021/08/15 02:23:01;;;;;;;5.97;3.10;;;;;;;;;;1084618;54;20377;-83
2021/08/15 02:24:03;;;;;;;7.50;3.10;;;;;;;;;;1084758;47;20385;-84
2021/08/15 02:25:06;;;;;;;7.63;3.40;;;;;;;;;;1084837;54;20405;-82
2021/08/15 02:26:07;;;;;;;6.47;3.58;;;;;;;;;;1085014;54;20377;-81
2021/08/15 02:27:09;;;;;;;4.30;2.65;;;;;;;;;;1084435;39;21296;-83
2021/08/15 02:28:10;;;;;;;6.20;3.17;;;;;;;;;;1081807;54;20456;-83
2021/08/15 02:29:12;;;;;;;4.65;2.78;;;;;;;;;;1081859;54;20466;-82
2021/08/15 02:30:14;;;;;;;6.53;3.00;;;;;;;;;;1082109;54;20403;-83
2021/08/15 02:31:16;;;;;;;5.22;3.28;;;;;;;;;;1081675;54;20391;-81
2021/08/15 02:32:17;;;;;;;6.60;3.00;;;;;;;;;;1081797;54;20353;-82
2021/08/15 02:33:19;;;;;;;5.00;2.85;;;;;;;;;;1082019;54;20390;-82
2021/08/15 02:34:24;;;;;;;7.85;3.10;;;;;;;;;;1081470;47;20392;-83
2021/08/15 02:35:30;;;;;;;11.27;3.90;;;;;;;;;;1081467;39;20794;-83
2021/08/15 02:36:33;;;;;;;3.25;2.70;;;;;;;;;;1081340;54;20388;-82
2021/08/15 02:37:34;;;;;;;7.15;3.10;;;;;;;;;;1081334;47;20403;-82
2021/08/15 02:38:37;;;;;;;6.25;3.17;;;;;;;;;;1081120;54;20917;-82
2021/08/15 02:39:39;;;;;;;6.22;3.10;;;;;;;;;;1081435;47;20385;-83
2021/08/15 02:40:40;;;;;;;7.82;3.45;;;;;;;;;;1081146;54;20385;-81
2021/08/15 02:41:42;;;;;;;7.70;4.15;;;;;;;;;;1081018;54;20369;-82
2021/08/15 02:42:44;;;;;;;5.15;3.38;;;;;;;;;;1081404;54;20370;-83
2021/08/15 02:43:46;;;;;;;6.07;3.38;;;;;;;;;;1081921;47;20489;-83
2021/08/15 02:44:47;;;;;;;9.50;3.90;;;;;;;;;;1081577;47;20952;-83
2021/08/15 02:45:49;;;;;;;6.38;3.05;;;;;;;;;;1081532;54;20396;-81
2021/08/15 02:46:50;;;;;;;9.18;3.15;;;;;;;;;;1081694;47;20366;-82
2021/08/15 02:47:52;;;;;;;7.68;3.30;;;;;;;;;;1081882;47;20403;-82
2021/08/15 02:48:55;;;;;;;5.25;3.08;;;;;;;;;;1081539;54;20557;-81
2021/08/15 02:49:56;;;;;;;5.63;3.15;;;;;;;;;;1081528;47;20978;-83
2021/08/15 02:50:58;;;;;;;7.70;3.80;;;;;;;;;;1081654;47;20365;-82
2021/08/15 02:52:00;;;;;;;9.77;3.78;;;;;;;;;;1081120;47;20373;-83
2021/08/15 02:53:01;;;;;;;7.80;3.13;;;;;;;;;;1082056;54;20427;-84
2021/08/15 02:54:03;;;;;;;5.05;3.17;;;;;;;;;;1081991;54;20386;-83
2021/08/15 02:55:05;;;;;;;7.65;3.75;;;;;;;;;;1081575;54;20361;-83
2021/08/15 02:56:07;;;;;;;8.88;4.10;;;;;;;;;;1081459;47;20489;-83
2021/08/15 02:57:08;;;;;;;9.95;3.70;;;;;;;;;;1082607;54;20927;-82
2021/08/15 02:58:10;;;;;;;6.93;3.80;;;;;;;;;;1082669;54;20392;-83
2021/08/15 02:59:11;;;;;;;6.38;3.00;;;;;;;;;;1083664;47;20369;-83
2021/08/15 03:00:13;;;;;;;6.47;4.05;;;;;;;;;;1084471;47;20404;-83
2021/08/15 03:01:15;;;;;;;7.55;3.70;;;;;;;;;;1083728;47;20390;-83
2021/08/15 03:02:18;;;;;;;5.68;3.70;;;;;;;;;;1082876;47;20937;-82
2021/08/15 03:03:20;;;;;;;7.35;3.38;;;;;;;;;;1083268;47;20376;-83
2021/08/15 03:04:21;;;;;;;8.27;3.50;;;;;;;;;;1083080;54;20404;-83
2021/08/15 03:05:23;;;;;;;8.07;3.88;;;;;;;;;;1083775;54;20385;-83
2021/08/15 03:06:24;;;;;;;7.00;3.92;;;;;;;;;;1084191;54;21102;-82
2021/08/15 03:07:26;;;;;;;10.40;3.88;;;;;;;;;;1084221;54;20357;-82
2021/08/15 03:08:28;;;;;;;7.47;4.38;;;;;;;;;;1083183;54;20385;-84
2021/08/15 03:09:29;;;;;;;8.73;3.83;;;;;;;;;;1083426;47;20365;-82
2021/08/15 03:10:31;;;;;;;9.35;3.70;;;;;;;;;;1083076;54;20500;-81
2021/08/15 03:11:33;;;;;;;8.18;3.50;;;;;;;;;;1082682;47;20369;-81
2021/08/15 03:12:35;;;;;;;6.18;4.00;;;;;;;;;;1082037;47;20476;-83
2021/08/15 03:13:36;;;;;;;8.60;3.83;;;;;;;;;;1081554;54;20928;-83
2021/08/15 03:14:38;;;;;;;7.93;4.00;;;;;;;;;;1081268;54;20420;-83
2021/08/15 03:15:40;;;;;;;11.23;3.97;;;;;;;;;;1081227;54;20491;-82
2021/08/15 03:16:42;;;;;;;7.50;3.58;;;;;;;;;;1081185;46;20373;-83
2021/08/15 03:17:43;;;;;;;5.97;3.58;;;;;;;;;;1081711;54;20373;-83
2021/08/15 03:18:45;;;;;;;7.80;4.10;;;;;;;;;;1081542;54;20382;-81
2021/08/15 03:19:46;;;;;;;7.45;3.67;;;;;;;;;;1081469;54;20365;-81
2021/08/15 03:20:48;;;;;;;10.20;4.15;;;;;;;;;;1081583;54;20410;-82
2021/08/15 03:21:49;;;;;;;7.53;3.78;;;;;;;;;;1081694;46;20377;-82
2021/08/15 03:22:51;;;;;;;7.88;4.07;;;;;;;;;;1081622;39;20766;-84
2021/08/15 03:23:53;;;;;;;10.05;3.88;;;;;;;;;;1081275;47;20365;-82
2021/08/15 03:24:54;;;;;;;7.60;3.92;;;;;;;;;;1081536;47;20373;-81
2021/08/15 03:25:56;;;;;;;7.60;3.40;;;;;;;;;;1081374;47;20393;-82
2021/08/15 03:26:57;;;;;;;7.45;4.43;;;;;;;;;;1081132;54;20951;-82
2021/08/15 03:27:59;;;;;;;9.82;3.55;;;;;;;;;;1081450;54;20369;-80
2021/08/15 03:29:00;;;;;;;8.80;3.97;;;;;;;;;;1081069;54;20365;-83
2021/08/15 03:30:02;;;;;;;10.82;4.35;;;;;;;;;;1081001;54;20416;-83
2021/08/15 03:31:04;;;;;;;8.10;3.70;;;;;;;;;;1081531;54;20995;-83
2021/08/15 03:32:05;;;;;;;7.70;3.80;;;;;;;;;;1081184;51;20381;-82
2021/08/15 03:33:07;;;;;;;7.35;3.95;;;;;;;;;;1081281;47;20391;-83
2021/08/15 03:34:09;;;;;;;10.07;3.80;;;;;;;;;;1081367;47;20380;-82
2021/08/15 03:35:10;;;;;;;8.20;4.07;;;;;;;;;;1081069;47;20361;-83
2021/08/15 03:36:12;;;;;;;11.50;4.63;;;;;;;;;;1081003;54;20917;-83
2021/08/15 03:37:14;;;;;;;9.32;4.63;;;;;;;;;;1080978;47;20377;-84
2021/08/15 03:38:15;;;;;;;10.25;4.03;;;;;;;;;;1080734;47;20381;-81
2021/08/15 03:39:17;;;;;;;8.73;4.40;;;;;;;;;;1081255;54;20377;-81
2021/08/15 03:40:18;;;;;;;10.67;4.10;;;;;;;;;;1080977;54;20484;-83
2021/08/15 03:41:20;;;;;;;9.10;4.30;;;;;;;;;;1081736;54;20944;-81
2021/08/15 03:42:22;;;;;;;6.63;3.63;;;;;;;;;;1080826;54;20362;-82
2021/08/15 03:43:23;;;;;;;8.77;4.43;;;;;;;;;;1080900;54;21294;-81
2021/08/15 03:44:26;;;;;;;7.35;3.72;;;;;;;;;;1081154;54;20395;-83
2021/08/15 03:45:28;;;;;;;11.15;4.80;;;;;;;;;;1081034;47;20377;-83
2021/08/15 03:46:29;;;;;;;11.48;4.93;;;;;;;;;;1081218;54;20374;-83
2021/08/15 03:47:32;;;;;;;9.70;4.22;;;;;;;;;;1080984;54;20365;-82
2021/08/15 03:48:33;;;;;;;14.88;4.38;;;;;;;;;;1081170;47;20373;-82
2021/08/15 03:49:35;;;;;;;10.13;4.75;;;;;;;;;;1081264;47;20358;-81
2021/08/15 03:50:36;;;;;;;12.45;4.93;;;;;;;;;;1081084;54;20369;-83
2021/08/15 03:51:38;;;;;;;10.82;4.43;;;;;;;;;;1081162;47;20385;-83
2021/08/15 03:52:41;;;;;;;8.02;4.07;;;;;;;;;;1080899;54;20417;-81
2021/08/15 03:53:42;;;;;;;9.27;4.22;;;;;;;;;;1081609;47;20385;-81
2021/08/15 03:54:44;;;;;;;10.13;4.47;;;;;;;;;;1081835;54;20424;-82
2021/08/15 03:55:45;;;;;;;13.73;5.57;;;;;;;;;;1081906;54;20404;-82
2021/08/15 03:56:50;;;;;;;8.77;4.50;;;;;;;;;;1081648;47;20365;-83
2021/08/15 03:57:51;;;;;;;9.23;4.40;;;;;;;;;;1081693;47;20377;-83
2021/08/15 03:58:54;;;;;;;9.50;4.90;;;;;;;;;;1082400;39;20772;-83
2021/08/15 03:59:55;;;;;;;11.70;4.93;;;;;;;;;;1081934;47;20924;-83
2021/08/15 04:00:57;;;;;;;11.32;4.70;;;;;;;;;;1081944;39;20740;-81
2021/08/15 04:01:59;;;;;;;8.48;5.50;;;;;;;;;;1081684;47;20385;-83
2021/08/15 04:03:01;;;;;;;11.57;4.93;;;;;;;;;;1081200;47;20480;-81
2021/08/15 04:04:03;;;;;;;10.65;5.30;;;;;;;;;;1081737;47;20385;-81
2021/08/15 04:05:05;;;;;;;9.88;4.90;;;;;;;;;;1081583;47;20396;-81
2021/08/15 04:06:08;;;;;;;10.65;5.82;;;;;;;;;;1082031;39;20774;-82
2021/08/15 04:07:10;;;;;;;13.98;5.55;;;;;;;;;;1081821;47;20481;-82
2021/08/15 04:08:11;;;;;;;13.98;6.38;;;;;;;;;;1081533;50;20377;-81
2021/08/15 04:09:13;;;;;;;11.70;5.60;;;;;;;;;;1082341;47;20369;-81
2021/08/15 04:10:14;;;;;;;8.85;5.07;;;;;;;;;;1084438;54;20357;-83
2021/08/15 04:11:17;;;;;;;11.15;4.88;;;;;;;;;;1085489;54;20373;-83
2021/08/15 04:12:18;;;;;;;11.25;4.32;;;;;;;;;;1084497;46;20377;-81
2021/08/15 04:13:20;;;;;;;13.50;4.75;;;;;;;;;;1084608;51;21099;-83
2021/08/15 04:14:22;;;;;;;9.45;4.93;;;;;;;;;;1086560;47;20393;-83
2021/08/15 04:15:24;;;;;;;9.45;5.13;;;;;;;;;;1085137;49;20461;-83
2021/08/15 04:16:26;;;;;;;10.55;5.30;;;;;;;;;;1085062;54;20369;-82
2021/08/15 04:17:27;;;;;;;10.63;5.47;;;;;;;;;;1087175;54;20353;-83
2021/08/15 04:18:29;;;;;;;11.38;5.15;;;;;;;;;;1088064;54;20396;-81
2021/08/15 04:19:30;;;;;;;11.68;4.85;;;;;;;;;;1087902;54;20350;-82
2021/08/15 04:20:32;;;;;;;10.35;4.90;;;;;;;;;;1087742;54;20433;-81
2021/08/15 04:21:33;;;;;;;9.35;5.65;;;;;;;;;;1086531;47;20381;-81
2021/08/15 04:22:35;;;;;;;12.27;5.22;;;;;;;;;;1086274;51;20353;-82
2021/08/15 04:23:37;;;;;;;10.23;6.13;;;;;;;;;;1086173;47;20429;-82
2021/08/15 04:24:38;;;;;;;8.77;5.07;;;;;;;;;;1085298;54;20391;-83
2021/08/15 04:25:40;;;;;;;9.25;4.97;;;;;;;;;;1083516;39;20730;-81
2021/08/15 04:26:44;;;;;;;9.73;5.73;;;;;;;;;;1082951;39;20869;-82
2021/08/15 04:27:45;;;;;;;11.80;6.50;;;;;;;;;;1081786;47;20407;-82
2021/08/15 04:28:47;;;;;;;9.53;5.37;;;;;;;;;;1082123;39;20845;-83
2021/08/15 04:29:49;;;;;;;13.75;5.95;;;;;;;;;;1081485;54;20916;-81
2021/08/15 04:30:51;;;;;;;11.98;6.00;;;;;;;;;;1082435;39;20715;-81
2021/08/15 04:31:52;;;;;;;11.52;5.53;;;;;;;;;;1081505;54;20381;-81
2021/08/15 04:32:54;;;;;;;13.75;6.40;;;;;;;;;;1081827;39;20801;-83
2021/08/15 04:33:55;;;;;;;13.65;6.25;;;;;;;;;;1081416;54;20960;-83
2021/08/15 04:34:57;;;;;;;12.68;6.32;;;;;;;;;;1081780;47;20369;-81
2021/08/15 04:35:58;;;;;;;12.65;6.57;;;;;;;;;;1081255;54;20420;-81
2021/08/15 04:37:00;;;;;;;11.32;6.65;;;;;;;;;;1081436;54;20421;-81
2021/08/15 04:38:02;;;;;;;10.23;6.47;;;;;;;;;;1081441;39;20789;-83
2021/08/15 04:39:04;;;;;;;13.30;6.63;;;;;;;;;;1081630;47;20984;-81
2021/08/15 04:40:06;;;;;;;13.68;6.13;;;;;;;;;;1081181;47;20434;-82
2021/08/15 04:41:07;;;;;;;12.95;5.95;;;;;;;;;;1081384;54;20365;-81
2021/08/15 04:42:09;;;;;;;11.13;6.28;;;;;;;;;;1081396;39;21101;-81
2021/08/15 04:43:10;;;;;;;11.95;5.97;;;;;;;;;;1081003;47;20930;-83
2021/08/15 04:44:12;;;;;;;9.73;5.80;;;;;;;;;;1081679;54;20373;-83
2021/08/15 04:45:13;;;;;;;11.88;5.95;;;;;;;;;;1081476;47;20418;-83
2021/08/15 04:46:15;;;;;;;14.25;6.35;;;;;;;;;;1080779;47;20376;-83
2021/08/15 04:47:16;;;;;;;14.27;6.35;;;;;;;;;;1081331;47;20373;-83
2021/08/15 04:48:18;;;;;;;12.48;6.35;;;;;;;;;;1081419;54;20373;-83
2021/08/15 04:49:20;;;;;;;20.75;6.82;;;;;;;;;;1081884;47;20388;-82
2021/08/15 04:50:21;;;;;;;10.52;6.40;;;;;;;;;;1081477;54;20353;-83
2021/08/15 04:51:23;;;;;;;12.57;6.18;;;;;;;;;;1081316;54;20357;-82
2021/08/15 04:52:24;;;;;;;12.43;6.53;;;;;;;;;;1081664;54;20373;-83
2021/08/15 04:53:27;;;;;;;10.75;6.30;;;;;;;;;;1081385;54;20373;-82
2021/08/15 04:54:29;;;;;;;13.85;6.30;;;;;;;;;;1081379;47;20375;-82
2021/08/15 04:55:31;;;;;;;14.68;6.60;;;;;;;;;;1081959;54;20377;-81
2021/08/15 04:56:32;;;;;;;12.95;5.97;;;;;;;;;;1084293;54;20472;-83
2021/08/15 04:57:34;;;;;;;12.02;5.72;;;;;;;;;;1084793;54;20366;-81
2021/08/15 04:58:37;;;;;;;14.60;7.20;;;;;;;;;;1084221;54;20385;-82
2021/08/15 04:59:38;;;;;;;17.13;7.15;;;;;;;;;;1084613;54;20372;-83
2021/08/15 05:00:40;;;;;;;15.07;6.90;;;;;;;;;;1085938;39;20783;-83
2021/08/15 05:01:41;;;;;;;14.30;6.27;;;;;;;;;;1083045;54;20913;-82
2021/08/15 05:02:43;;;;;;;12.38;5.90;;;;;;;;;;1084931;47;20373;-82
2021/08/15 05:03:45;;;;;;;14.77;6.18;;;;;;;;;;1083311;47;20381;-82
2021/08/15 05:04:46;;;;;;;14.05;6.15;;;;;;;;;;1081462;54;20392;-83
2021/08/15 05:05:48;;;;;;;13.43;5.63;;;;;;;;;;1081672;54;20389;-83
2021/08/15 05:06:49;;;;;;;15.48;6.03;;;;;;;;;;1081336;54;20955;-83
2021/08/15 05:07:51;;;;;;;14.68;6.60;;;;;;;;;;1080923;54;20406;-83
2021/08/15 05:08:53;;;;;;;19.52;6.82;;;;;;;;;;1080929;47;20373;-83
2021/08/15 05:09:54;;;;;;;12.90;5.93;;;;;;;;;;1081447;39;20895;-83
2021/08/15 05:10:58;;;;;;;16.70;6.75;;;;;;;;;;1080872;54;20381;-82
2021/08/15 05:12:00;;;;;;;10.77;6.47;;;;;;;;;;1081122;47;20392;-82
2021/08/15 05:13:02;;;;;;;13.70;6.32;;;;;;;;;;1080913;54;20373;-83
2021/08/15 05:14:05;;;;;;;13.02;6.03;;;;;;;;;;1081665;39;21142;-83
2021/08/15 05:15:06;;;;;;;12.10;6.20;;;;;;;;;;1081084;47;20381;-83
2021/08/15 05:16:08;;;;;;;13.32;5.95;;;;;;;;;;1081098;47;20369;-82
2021/08/15 05:17:10;;;;;;;10.68;5.10;;;;;;;;;;1080967;47;20392;-82
2021/08/15 05:18:13;;;;;;;14.00;5.80;;;;;;;;;;1081179;54;20392;-83
2021/08/15 05:19:14;;;;;;;14.88;5.90;;;;;;;;;;1081418;39;21085;-82
2021/08/15 05:20:16;;;;;;;13.52;5.22;;;;;;;;;;1081215;47;20390;-82
2021/08/15 05:21:17;;;;;;;10.07;5.32;;;;;;;;;;1081034;47;20369;-82
2021/08/15 05:22:19;;;;;;;13.30;5.40;;;;;;;;;;1081177;47;20369;-82
2021/08/15 05:23:21;;;;;;;13.48;5.70;;;;;;;;;;1080876;47;20396;-82
2021/08/15 05:24:22;;;;;;;13.38;5.03;;;;;;;;;;1080767;54;20404;-82
2021/08/15 05:25:24;;;;;;;10.90;5.00;;;;;;;;;;1080952;54;20365;-81
2021/08/15 05:26:26;;;;;;;10.73;5.05;;;;;;;;;;1080589;54;20400;-83
2021/08/15 05:27:27;;;;;;;14.82;6.28;;;;;;;;;;1080973;47;20932;-83
2021/08/15 05:28:29;;;;;;;12.85;6.55;;;;;;;;;;1080979;54;20378;-83
2021/08/15 05:29:30;;;;;;;14.85;5.88;;;;;;;;;;1081167;54;20357;-82
2021/08/15 05:30:32;;;;;;;13.77;5.13;;;;;;;;;;1081142;47;20366;-81
2021/08/15 05:31:33;;;;;;;15.57;6.00;;;;;;;;;;1080826;47;20405;-82
2021/08/15 05:32:35;;;;;;;11.68;5.63;;;;;;;;;;1080918;54;20395;-82
2021/08/15 05:33:37;;;;;;;9.32;5.05;;;;;;;;;;1080994;54;20369;-82
2021/08/15 05:34:38;;;;;;;13.70;5.18;;;;;;;;;;1081324;39;20886;-82
2021/08/15 05:35:40;;;;;;;16.05;5.78;;;;;;;;;;1080844;54;20381;-83
2021/08/15 05:36:41;;;;;;;12.27;5.85;;;;;;;;;;1081532;54;20388;-81
2021/08/15 05:37:43;;;;;;;12.85;4.88;;;;;;;;;;1082023;39;21137;-84
2021/08/15 05:38:44;;;;;;;13.55;5.57;;;;;;;;;;1081474;54;20369;-82
2021/08/15 05:39:46;;;;;;;12.57;5.40;;;;;;;;;;1081653;54;20397;-81
2021/08/15 05:40:47;;;;;;;13.27;5.28;;;;;;;;;;1081972;39;20843;-81
2021/08/15 05:41:49;;;;;;;10.30;5.35;;;;;;;;;;1081219;47;20385;-82
2021/08/15 05:42:50;;;;;;;14.00;5.45;;;;;;;;;;1080954;54;20389;-82
2021/08/15 05:43:52;;;;;;;11.68;6.00;;;;;;;;;;1081701;47;20403;-83
2021/08/15 05:44:53;;;;;;;15.23;6.22;;;;;;;;;;1082838;54;20492;-83
2021/08/15 05:45:55;;;;;;;11.57;4.75;;;;;;;;;;1084009;47;20425;-82
2021/08/15 05:46:57;;;;;;;9.93;5.28;;;;;;;;;;1084655;47;20365;-82
2021/08/15 05:47:58;;;;;;;12.05;5.18;;;;;;;;;;1083535;39;20884;-83
2021/08/15 05:49:00;;;;;;;11.65;5.55;;;;;;;;;;1082331;54;20932;-83
2021/08/15 05:50:02;;;;;;;13.35;6.03;;;;;;;;;;1085605;39;20741;-83
2021/08/15 05:51:05;;;;;;;12.65;6.20;;;;;;;;;;1086099;46;20373;-84
2021/08/15 05:52:07;;;;;;;15.05;5.22;;;;;;;;;;1085742;54;20373;-81
2021/08/15 05:53:08;;;;;;;12.50;5.22;;;;;;;;;;1085374;47;21259;-82
2021/08/15 05:54:10;;;;;;;16.58;5.88;;;;;;;;;;1084197;54;20400;-83
2021/08/15 05:55:12;;;;;;;12.82;5.68;;;;;;;;;;1083046;31;20806;-83
2021/08/15 05:56:14;;;;;;;14.93;5.43;;;;;;;;;;1082259;54;20353;-83
2021/08/15 05:57:15;;;;;;;14.13;5.78;;;;;;;;;;1082706;54;20395;-82
2021/08/15 05:58:17;;;;;;;13.17;5.90;;;;;;;;;;1086283;54;20349;-86
2021/08/15 05:59:19;;;;;;;14.13;5.78;;;;;;;;;;1084312;39;21151;-86
2021/08/15 06:00:20;;;;;;;10.18;4.93;;;;;;;;;;1082367;54;20952;-86
2021/08/15 06:01:22;;;;;;;13.15;7.07;;;;;;;;;;1082273;54;20400;-85
2021/08/15 06:02:24;;;;;;;16.73;5.80;;;;;;;;;;1081764;51;20921;-84
2021/08/15 06:03:26;;;;;;;14.05;5.50;;;;;;;;;;1081901;54;21481;-88
2021/08/15 06:04:28;;;;;;;13.63;6.07;;;;;;;;;;1081913;54;20416;-88
2021/08/15 06:05:29;;;;;;;15.23;5.72;;;;;;;;;;1082354;47;20408;-85
2021/08/15 06:06:31;;;;;;;10.75;5.53;;;;;;;;;;1082489;54;20353;-87
2021/08/15 06:07:32;;;;;;;14.38;5.03;;;;;;;;;;1081575;54;20370;-85
2021/08/15 06:08:34;;;;;;;18.92;6.32;;;;;;;;;;1082322;47;20379;-88